Terminal Aerodrome Forecast
Issued by NWS

Home | Current Version | Previous Version | Text Only | Print | Product List | Glossary On
Versions: 1 2 3 4 5 6 7 8 9 10 11 12 13
000
FTUS46 KPDT 051123
TAFRDM
TAF
KRDM 051123Z 0512/0612 VRB04KT P6SM SCT250
     FM052000 32009G15KT P6SM SCT070 SCT200
     FM060600 33006KT P6SM SCT200=

USA.gov is the U.S. government's official web portal to all federal, state and local government web resources and services.